sensor_id;sensor_type;location;lat;lon;timestamp;P1;durP1;ratioP1;P2;durP2;ratioP2
20480;SDS011;10399;50.754;3.366;2022-07-23T00:00:40;9.77;;;6.22;;
20480;SDS011;10399;50.754;3.366;2022-07-23T00:03:07;10.27;;;6.55;;
20480;SDS011;10399;50.754;3.366;2022-07-23T00:05:34;8.77;;;6.22;;
20480;SDS011;10399;50.754;3.366;2022-07-23T00:08:03;11.05;;;6.97;;
20480;SDS011;10399;50.754;3.366;2022-07-23T00:10:31;16.98;;;7.07;;
20480;SDS011;10399;50.754;3.366;2022-07-23T00:12:58;10.35;;;6.90;;
20480;SDS011;10399;50.754;3.366;2022-07-23T00:15:25;10.35;;;6.57;;
20480;SDS011;10399;50.754;3.366;2022-07-23T00:17:52;11.77;;;6.55;;
20480;SDS011;10399;50.754;3.366;2022-07-23T00:20:19;12.18;;;7.15;;
20480;SDS011;10399;50.754;3.366;2022-07-23T00:22:49;11.50;;;6.65;;
20480;SDS011;10399;50.754;3.366;2022-07-23T00:25:18;14.82;;;7.15;;
20480;SDS011;10399;50.754;3.366;2022-07-23T00:27:56;9.75;;;7.00;;
20480;SDS011;10399;50.754;3.366;2022-07-23T00:30:26;13.85;;;7.10;;
20480;SDS011;10399;50.754;3.366;2022-07-23T00:32:57;13.88;;;7.68;;
20480;SDS011;10399;50.754;3.366;2022-07-23T00:35:26;10.38;;;7.35;;
20480;SDS011;10399;50.754;3.366;2022-07-23T00:37:55;12.20;;;7.88;;
20480;SDS011;10399;50.754;3.366;2022-07-23T00:40:23;14.90;;;8.00;;
20480;SDS011;10399;50.754;3.366;2022-07-23T00:42:51;11.35;;;7.20;;
20480;SDS011;10399;50.754;3.366;2022-07-23T00:45:18;12.32;;;7.53;;
20480;SDS011;10399;50.754;3.366;2022-07-23T00:47:45;12.15;;;7.80;;
20480;SDS011;10399;50.754;3.366;2022-07-23T00:50:13;15.43;;;7.85;;
20480;SDS011;10399;50.754;3.366;2022-07-23T00:52:41;13.50;;;7.75;;
20480;SDS011;10399;50.754;3.366;2022-07-23T00:55:09;10.82;;;7.60;;
20480;SDS011;10399;50.754;3.366;2022-07-23T00:57:37;12.68;;;8.10;;
20480;SDS011;10399;50.754;3.366;2022-07-23T01:00:07;11.30;;;7.88;;
20480;SDS011;10399;50.754;3.366;2022-07-23T01:02:37;12.35;;;7.82;;
20480;SDS011;10399;50.754;3.366;2022-07-23T01:05:05;11.15;;;7.72;;
20480;SDS011;10399;50.754;3.366;2022-07-23T01:07:33;13.93;;;8.30;;
20480;SDS011;10399;50.754;3.366;2022-07-23T01:10:00;16.05;;;7.63;;
20480;SDS011;10399;50.754;3.366;2022-07-23T01:12:28;13.30;;;7.85;;
20480;SDS011;10399;50.754;3.366;2022-07-23T01:14:59;12.32;;;8.10;;
20480;SDS011;10399;50.754;3.366;2022-07-23T01:17:26;11.05;;;7.85;;
20480;SDS011;10399;50.754;3.366;2022-07-23T01:19:54;13.63;;;7.78;;
20480;SDS011;10399;50.754;3.366;2022-07-23T01:22:21;10.80;;;7.95;;
20480;SDS011;10399;50.754;3.366;2022-07-23T01:24:48;13.50;;;8.57;;
20480;SDS011;10399;50.754;3.366;2022-07-23T01:27:16;13.10;;;8.10;;
20480;SDS011;10399;50.754;3.366;2022-07-23T01:29:44;15.98;;;8.25;;
20480;SDS011;10399;50.754;3.366;2022-07-23T01:32:11;15.60;;;8.43;;
20480;SDS011;10399;50.754;3.366;2022-07-23T01:34:38;15.68;;;8.95;;
20480;SDS011;10399;50.754;3.366;2022-07-23T01:37:06;12.88;;;8.82;;
20480;SDS011;10399;50.754;3.366;2022-07-23T01:39:33;12.25;;;8.95;;
20480;SDS011;10399;50.754;3.366;2022-07-23T01:42:00;13.52;;;8.77;;
20480;SDS011;10399;50.754;3.366;2022-07-23T01:44:27;16.23;;;9.95;;
20480;SDS011;10399;50.754;3.366;2022-07-23T01:46:55;14.60;;;8.75;;
20480;SDS011;10399;50.754;3.366;2022-07-23T01:49:22;14.77;;;9.48;;
20480;SDS011;10399;50.754;3.366;2022-07-23T01:51:49;19.13;;;10.05;;
20480;SDS011;10399;50.754;3.366;2022-07-23T01:54:32;16.60;;;9.55;;
20480;SDS011;10399;50.754;3.366;2022-07-23T01:57:00;12.48;;;9.20;;
20480;SDS011;10399;50.754;3.366;2022-07-23T01:59:27;17.35;;;10.15;;
20480;SDS011;10399;50.754;3.366;2022-07-23T02:01:55;12.90;;;9.13;;
20480;SDS011;10399;50.754;3.366;2022-07-23T02:04:22;16.65;;;9.10;;
20480;SDS011;10399;50.754;3.366;2022-07-23T02:06:51;13.18;;;9.88;;
20480;SDS011;10399;50.754;3.366;2022-07-23T02:09:19;14.20;;;9.65;;
20480;SDS011;10399;50.754;3.366;2022-07-23T02:11:46;12.82;;;9.45;;
20480;SDS011;10399;50.754;3.366;2022-07-23T02:14:13;16.67;;;9.10;;
20480;SDS011;10399;50.754;3.366;2022-07-23T02:16:40;13.43;;;9.77;;
20480;SDS011;10399;50.754;3.366;2022-07-23T02:19:07;15.23;;;9.80;;
20480;SDS011;10399;50.754;3.366;2022-07-23T02:21:34;17.77;;;10.32;;
20480;SDS011;10399;50.754;3.366;2022-07-23T02:24:02;14.50;;;10.13;;
20480;SDS011;10399;50.754;3.366;2022-07-23T02:26:29;16.10;;;10.68;;
20480;SDS011;10399;50.754;3.366;2022-07-23T02:28:58;16.85;;;10.57;;
20480;SDS011;10399;50.754;3.366;2022-07-23T02:31:25;16.67;;;10.40;;
20480;SDS011;10399;50.754;3.366;2022-07-23T02:33:52;16.20;;;9.90;;
20480;SDS011;10399;50.754;3.366;2022-07-23T02:36:19;15.93;;;9.88;;
20480;SDS011;10399;50.754;3.366;2022-07-23T02:38:46;20.55;;;10.48;;
20480;SDS011;10399;50.754;3.366;2022-07-23T02:41:13;16.83;;;9.95;;
20480;SDS011;10399;50.754;3.366;2022-07-23T02:43:40;17.23;;;10.90;;
20480;SDS011;10399;50.754;3.366;2022-07-23T02:46:07;15.93;;;10.30;;
20480;SDS011;10399;50.754;3.366;2022-07-23T02:48:33;14.85;;;10.80;;
20480;SDS011;10399;50.754;3.366;2022-07-23T02:51:00;14.63;;;10.35;;
20480;SDS011;10399;50.754;3.366;2022-07-23T02:53:27;13.32;;;9.95;;
20480;SDS011;10399;50.754;3.366;2022-07-23T02:55:54;18.50;;;10.43;;
20480;SDS011;10399;50.754;3.366;2022-07-23T02:58:21;21.88;;;11.10;;
20480;SDS011;10399;50.754;3.366;2022-07-23T03:00:48;18.58;;;10.85;;
20480;SDS011;10399;50.754;3.366;2022-07-23T03:03:15;17.70;;;10.18;;
20480;SDS011;10399;50.754;3.366;2022-07-23T03:05:42;15.90;;;10.73;;
20480;SDS011;10399;50.754;3.366;2022-07-23T03:08:09;17.77;;;10.05;;
20480;SDS011;10399;50.754;3.366;2022-07-23T03:10:36;14.02;;;10.32;;
20480;SDS011;10399;50.754;3.366;2022-07-23T03:13:03;19.63;;;11.15;;
20480;SDS011;10399;50.754;3.366;2022-07-23T03:15:30;16.58;;;11.98;;
20480;SDS011;10399;50.754;3.366;2022-07-23T03:17:57;18.10;;;11.07;;
20480;SDS011;10399;50.754;3.366;2022-07-23T03:20:25;17.38;;;11.90;;
20480;SDS011;10399;50.754;3.366;2022-07-23T03:22:52;16.90;;;11.73;;
20480;SDS011;10399;50.754;3.366;2022-07-23T03:25:19;15.20;;;11.35;;
20480;SDS011;10399;50.754;3.366;2022-07-23T03:27:46;16.48;;;11.07;;
20480;SDS011;10399;50.754;3.366;2022-07-23T03:30:13;21.13;;;12.32;;
20480;SDS011;10399;50.754;3.366;2022-07-23T03:32:39;17.60;;;12.02;;
20480;SDS011;10399;50.754;3.366;2022-07-23T03:35:07;16.50;;;11.52;;
20480;SDS011;10399;50.754;3.366;2022-07-23T03:37:35;16.23;;;11.23;;
20480;SDS011;10399;50.754;3.366;2022-07-23T03:40:03;17.80;;;12.15;;
20480;SDS011;10399;50.754;3.366;2022-07-23T03:42:31;19.35;;;11.45;;
20480;SDS011;10399;50.754;3.366;2022-07-23T03:44:57;15.50;;;11.50;;
20480;SDS011;10399;50.754;3.366;2022-07-23T03:47:24;17.05;;;12.38;;
20480;SDS011;10399;50.754;3.366;2022-07-23T03:49:51;18.17;;;11.93;;
20480;SDS011;10399;50.754;3.366;2022-07-23T03:52:18;16.92;;;11.75;;
20480;SDS011;10399;50.754;3.366;2022-07-23T03:54:45;18.25;;;11.63;;
20480;SDS011;10399;50.754;3.366;2022-07-23T03:57:12;15.30;;;11.32;;
20480;SDS011;10399;50.754;3.366;2022-07-23T03:59:39;18.90;;;11.82;;
20480;SDS011;10399;50.754;3.366;2022-07-23T04:02:06;16.88;;;12.10;;
20480;SDS011;10399;50.754;3.366;2022-07-23T04:04:33;18.83;;;11.45;;
20480;SDS011;10399;50.754;3.366;2022-07-23T04:06:59;20.50;;;13.45;;
20480;SDS011;10399;50.754;3.366;2022-07-23T04:09:27;23.35;;;14.20;;
20480;SDS011;10399;50.754;3.366;2022-07-23T04:11:54;21.23;;;13.55;;
20480;SDS011;10399;50.754;3.366;2022-07-23T04:14:21;24.17;;;15.68;;
20480;SDS011;10399;50.754;3.366;2022-07-23T04:16:48;27.20;;;15.80;;
20480;SDS011;10399;50.754;3.366;2022-07-23T04:19:15;23.08;;;15.65;;
20480;SDS011;10399;50.754;3.366;2022-07-23T04:21:42;23.83;;;15.65;;
20480;SDS011;10399;50.754;3.366;2022-07-23T04:24:09;26.27;;;15.25;;
20480;SDS011;10399;50.754;3.366;2022-07-23T04:26:36;21.15;;;15.27;;
20480;SDS011;10399;50.754;3.366;2022-07-23T04:29:03;22.80;;;14.90;;
20480;SDS011;10399;50.754;3.366;2022-07-23T04:31:31;22.63;;;14.80;;
20480;SDS011;10399;50.754;3.366;2022-07-23T04:34:02;21.15;;;14.18;;
20480;SDS011;10399;50.754;3.366;2022-07-23T04:36:29;18.63;;;12.80;;
20480;SDS011;10399;50.754;3.366;2022-07-23T04:38:57;23.23;;;14.43;;
20480;SDS011;10399;50.754;3.366;2022-07-23T04:41:24;21.60;;;12.88;;
20480;SDS011;10399;50.754;3.366;2022-07-23T04:43:50;19.10;;;13.70;;
20480;SDS011;10399;50.754;3.366;2022-07-23T04:46:17;24.55;;;14.63;;
20480;SDS011;10399;50.754;3.366;2022-07-23T04:48:45;22.38;;;13.55;;
20480;SDS011;10399;50.754;3.366;2022-07-23T04:51:12;23.15;;;14.15;;
20480;SDS011;10399;50.754;3.366;2022-07-23T04:53:38;18.88;;;13.18;;
20480;SDS011;10399;50.754;3.366;2022-07-23T04:56:05;20.35;;;13.63;;
20480;SDS011;10399;50.754;3.366;2022-07-23T04:58:32;18.95;;;13.40;;
20480;SDS011;10399;50.754;3.366;2022-07-23T05:01:00;20.83;;;13.43;;
20480;SDS011;10399;50.754;3.366;2022-07-23T05:03:27;19.70;;;13.23;;
20480;SDS011;10399;50.754;3.366;2022-07-23T05:05:53;17.45;;;12.93;;
20480;SDS011;10399;50.754;3.366;2022-07-23T05:08:20;23.35;;;13.60;;
20480;SDS011;10399;50.754;3.366;2022-07-23T05:10:47;19.95;;;14.73;;
20480;SDS011;10399;50.754;3.366;2022-07-23T05:13:15;24.67;;;12.95;;
20480;SDS011;10399;50.754;3.366;2022-07-23T05:15:42;20.20;;;13.15;;
20480;SDS011;10399;50.754;3.366;2022-07-23T05:18:10;19.75;;;13.50;;
20480;SDS011;10399;50.754;3.366;2022-07-23T05:20:37;22.27;;;13.55;;
20480;SDS011;10399;50.754;3.366;2022-07-23T05:23:04;18.77;;;13.70;;
20480;SDS011;10399;50.754;3.366;2022-07-23T05:25:31;21.70;;;13.48;;
20480;SDS011;10399;50.754;3.366;2022-07-23T05:27:58;20.67;;;13.60;;
20480;SDS011;10399;50.754;3.366;2022-07-23T05:30:25;23.77;;;14.13;;
20480;SDS011;10399;50.754;3.366;2022-07-23T05:32:52;19.13;;;13.27;;
20480;SDS011;10399;50.754;3.366;2022-07-23T05:35:19;21.38;;;14.30;;
20480;SDS011;10399;50.754;3.366;2022-07-23T05:37:46;23.38;;;14.90;;
20480;SDS011;10399;50.754;3.366;2022-07-23T05:40:12;24.80;;;14.80;;
20480;SDS011;10399;50.754;3.366;2022-07-23T05:42:40;26.52;;;15.38;;
20480;SDS011;10399;50.754;3.366;2022-07-23T05:45:08;24.05;;;15.80;;
20480;SDS011;10399;50.754;3.366;2022-07-23T05:47:43;26.02;;;15.65;;
20480;SDS011;10399;50.754;3.366;2022-07-23T05:50:14;24.60;;;15.45;;
20480;SDS011;10399;50.754;3.366;2022-07-23T05:52:42;27.25;;;16.67;;
20480;SDS011;10399;50.754;3.366;2022-07-23T05:55:10;25.40;;;16.02;;
20480;SDS011;10399;50.754;3.366;2022-07-23T05:57:39;21.90;;;15.82;;
20480;SDS011;10399;50.754;3.366;2022-07-23T06:00:07;23.40;;;16.73;;
20480;SDS011;10399;50.754;3.366;2022-07-23T06:02:36;25.05;;;15.73;;
20480;SDS011;10399;50.754;3.366;2022-07-23T06:05:05;27.77;;;17.00;;
20480;SDS011;10399;50.754;3.366;2022-07-23T06:07:34;26.23;;;16.60;;
20480;SDS011;10399;50.754;3.366;2022-07-23T06:10:02;25.85;;;17.40;;
20480;SDS011;10399;50.754;3.366;2022-07-23T06:12:30;26.58;;;16.75;;
20480;SDS011;10399;50.754;3.366;2022-07-23T06:14:57;23.42;;;16.02;;
20480;SDS011;10399;50.754;3.366;2022-07-23T06:17:24;24.33;;;16.13;;
20480;SDS011;10399;50.754;3.366;2022-07-23T06:19:52;26.08;;;16.38;;
20480;SDS011;10399;50.754;3.366;2022-07-23T06:22:19;26.27;;;16.48;;
20480;SDS011;10399;50.754;3.366;2022-07-23T06:24:46;24.13;;;15.05;;
20480;SDS011;10399;50.754;3.366;2022-07-23T06:27:14;24.70;;;15.93;;
20480;SDS011;10399;50.754;3.366;2022-07-23T06:29:41;25.05;;;16.67;;
20480;SDS011;10399;50.754;3.366;2022-07-23T06:32:08;27.02;;;16.10;;
20480;SDS011;10399;50.754;3.366;2022-07-23T06:34:36;26.05;;;16.15;;
20480;SDS011;10399;50.754;3.366;2022-07-23T06:37:03;28.63;;;15.85;;
20480;SDS011;10399;50.754;3.366;2022-07-23T06:39:29;27.23;;;15.50;;
20480;SDS011;10399;50.754;3.366;2022-07-23T06:41:56;24.20;;;15.80;;
20480;SDS011;10399;50.754;3.366;2022-07-23T06:44:26;22.98;;;15.23;;
20480;SDS011;10399;50.754;3.366;2022-07-23T06:46:53;21.58;;;14.75;;
20480;SDS011;10399;50.754;3.366;2022-07-23T06:49:20;22.15;;;13.95;;
20480;SDS011;10399;50.754;3.366;2022-07-23T06:51:47;21.80;;;13.73;;
20480;SDS011;10399;50.754;3.366;2022-07-23T06:54:14;24.35;;;14.15;;
20480;SDS011;10399;50.754;3.366;2022-07-23T06:56:41;22.45;;;14.45;;
20480;SDS011;10399;50.754;3.366;2022-07-23T06:59:09;20.08;;;13.23;;
20480;SDS011;10399;50.754;3.366;2022-07-23T07:01:36;21.00;;;14.07;;
20480;SDS011;10399;50.754;3.366;2022-07-23T07:04:03;22.45;;;13.98;;
20480;SDS011;10399;50.754;3.366;2022-07-23T07:06:30;23.13;;;13.77;;
20480;SDS011;10399;50.754;3.366;2022-07-23T07:08:57;23.80;;;13.43;;
20480;SDS011;10399;50.754;3.366;2022-07-23T07:11:25;20.70;;;14.38;;
20480;SDS011;10399;50.754;3.366;2022-07-23T07:13:52;21.17;;;14.95;;
20480;SDS011;10399;50.754;3.366;2022-07-23T07:16:19;21.33;;;14.43;;
20480;SDS011;10399;50.754;3.366;2022-07-23T07:18:46;21.00;;;13.20;;
20480;SDS011;10399;50.754;3.366;2022-07-23T07:21:13;21.92;;;13.50;;
20480;SDS011;10399;50.754;3.366;2022-07-23T07:23:40;18.25;;;13.20;;
20480;SDS011;10399;50.754;3.366;2022-07-23T07:26:07;20.73;;;13.98;;
20480;SDS011;10399;50.754;3.366;2022-07-23T07:28:34;23.05;;;13.88;;
20480;SDS011;10399;50.754;3.366;2022-07-23T07:31:01;19.17;;;12.90;;
20480;SDS011;10399;50.754;3.366;2022-07-23T07:33:28;21.45;;;13.93;;
20480;SDS011;10399;50.754;3.366;2022-07-23T07:35:55;21.60;;;13.73;;
20480;SDS011;10399;50.754;3.366;2022-07-23T07:38:23;20.77;;;14.07;;
20480;SDS011;10399;50.754;3.366;2022-07-23T07:40:51;22.30;;;13.90;;
20480;SDS011;10399;50.754;3.366;2022-07-23T07:43:18;21.77;;;13.95;;
20480;SDS011;10399;50.754;3.366;2022-07-23T07:45:45;20.80;;;13.77;;
20480;SDS011;10399;50.754;3.366;2022-07-23T07:48:12;18.38;;;13.25;;
20480;SDS011;10399;50.754;3.366;2022-07-23T07:50:39;25.73;;;14.35;;
20480;SDS011;10399;50.754;3.366;2022-07-23T07:53:06;20.75;;;13.52;;
20480;SDS011;10399;50.754;3.366;2022-07-23T07:55:35;23.48;;;13.85;;
20480;SDS011;10399;50.754;3.366;2022-07-23T07:58:03;19.40;;;13.05;;
20480;SDS011;10399;50.754;3.366;2022-07-23T08:00:30;24.17;;;13.18;;
20480;SDS011;10399;50.754;3.366;2022-07-23T08:02:58;15.93;;;11.80;;
20480;SDS011;10399;50.754;3.366;2022-07-23T08:05:26;18.58;;;11.75;;
20480;SDS011;10399;50.754;3.366;2022-07-23T08:07:55;17.55;;;11.82;;
20480;SDS011;10399;50.754;3.366;2022-07-23T08:10:23;18.25;;;11.20;;
20480;SDS011;10399;50.754;3.366;2022-07-23T08:12:52;18.63;;;9.90;;
20480;SDS011;10399;50.754;3.366;2022-07-23T08:15:22;20.95;;;10.25;;
20480;SDS011;10399;50.754;3.366;2022-07-23T08:17:50;18.67;;;9.65;;
20480;SDS011;10399;50.754;3.366;2022-07-23T08:20:18;15.10;;;9.05;;
20480;SDS011;10399;50.754;3.366;2022-07-23T08:22:50;20.48;;;10.82;;
20480;SDS011;10399;50.754;3.366;2022-07-23T08:25:22;17.15;;;11.43;;
20480;SDS011;10399;50.754;3.366;2022-07-23T08:27:54;18.50;;;10.73;;
20480;SDS011;10399;50.754;3.366;2022-07-23T08:30:21;18.10;;;10.43;;
20480;SDS011;10399;50.754;3.366;2022-07-23T08:38:02;16.08;;;9.23;;
20480;SDS011;10399;50.754;3.366;2022-07-23T08:40:33;14.65;;;9.13;;
20480;SDS011;10399;50.754;3.366;2022-07-23T08:43:09;13.65;;;8.95;;
20480;SDS011;10399;50.754;3.366;2022-07-23T08:45:38;15.57;;;9.27;;
20480;SDS011;10399;50.754;3.366;2022-07-23T08:48:13;18.00;;;9.90;;
20480;SDS011;10399;50.754;3.366;2022-07-23T08:50:43;16.02;;;10.07;;
20480;SDS011;10399;50.754;3.366;2022-07-23T08:53:11;18.25;;;10.52;;
20480;SDS011;10399;50.754;3.366;2022-07-23T08:55:38;14.00;;;9.43;;
20480;SDS011;10399;50.754;3.366;2022-07-23T08:58:05;17.65;;;10.07;;
20480;SDS011;10399;50.754;3.366;2022-07-23T09:00:32;13.68;;;8.18;;
20480;SDS011;10399;50.754;3.366;2022-07-23T09:02:59;12.98;;;8.38;;
20480;SDS011;10399;50.754;3.366;2022-07-23T09:05:26;13.02;;;8.90;;
20480;SDS011;10399;50.754;3.366;2022-07-23T09:10:46;18.45;;;9.43;;
20480;SDS011;10399;50.754;3.366;2022-07-23T09:15:51;27.90;;;10.18;;
20480;SDS011;10399;50.754;3.366;2022-07-23T09:18:27;14.60;;;8.20;;
20480;SDS011;10399;50.754;3.366;2022-07-23T09:21:08;12.18;;;7.68;;
20480;SDS011;10399;50.754;3.366;2022-07-23T09:24:05;14.02;;;8.93;;
20480;SDS011;10399;50.754;3.366;2022-07-23T09:34:35;14.70;;;9.13;;
20480;SDS011;10399;50.754;3.366;2022-07-23T09:37:14;12.98;;;8.23;;
20480;SDS011;10399;50.754;3.366;2022-07-23T09:39:44;15.88;;;9.73;;
20480;SDS011;10399;50.754;3.366;2022-07-23T09:44:50;16.83;;;8.05;;
20480;SDS011;10399;50.754;3.366;2022-07-23T09:47:18;13.27;;;8.85;;
20480;SDS011;10399;50.754;3.366;2022-07-23T09:49:59;14.10;;;8.20;;
20480;SDS011;10399;50.754;3.366;2022-07-23T09:52:33;12.88;;;8.13;;
20480;SDS011;10399;50.754;3.366;2022-07-23T09:55:18;14.07;;;8.88;;
20480;SDS011;10399;50.754;3.366;2022-07-23T09:57:45;11.00;;;7.35;;
20480;SDS011;10399;50.754;3.366;2022-07-23T10:00:17;11.75;;;7.93;;
20480;SDS011;10399;50.754;3.366;2022-07-23T10:02:46;20.15;;;10.07;;
20480;SDS011;10399;50.754;3.366;2022-07-23T10:05:14;14.13;;;8.55;;
20480;SDS011;10399;50.754;3.366;2022-07-23T10:07:42;14.90;;;9.05;;
20480;SDS011;10399;50.754;3.366;2022-07-23T10:10:17;14.32;;;9.60;;
20480;SDS011;10399;50.754;3.366;2022-07-23T10:12:44;15.55;;;8.27;;
20480;SDS011;10399;50.754;3.366;2022-07-23T10:15:18;13.80;;;8.13;;
20480;SDS011;10399;50.754;3.366;2022-07-23T10:17:45;12.23;;;7.47;;
20480;SDS011;10399;50.754;3.366;2022-07-23T10:20:12;11.35;;;7.90;;
20480;SDS011;10399;50.754;3.366;2022-07-23T10:22:42;13.98;;;6.78;;
20480;SDS011;10399;50.754;3.366;2022-07-23T10:28:19;10.27;;;6.18;;
20480;SDS011;10399;50.754;3.366;2022-07-23T10:34:25;10.15;;;6.78;;
20480;SDS011;10399;50.754;3.366;2022-07-23T10:40:12;7.43;;;4.80;;
20480;SDS011;10399;50.754;3.366;2022-07-23T10:42:45;11.35;;;6.38;;
20480;SDS011;10399;50.754;3.366;2022-07-23T10:48:14;9.95;;;5.18;;
20480;SDS011;10399;50.754;3.366;2022-07-23T10:51:06;8.77;;;5.43;;
20480;SDS011;10399;50.754;3.366;2022-07-23T10:59:22;5.78;;;3.92;;
20480;SDS011;10399;50.754;3.366;2022-07-23T11:01:50;12.32;;;5.35;;
20480;SDS011;10399;50.754;3.366;2022-07-23T11:04:18;7.78;;;5.30;;
20480;SDS011;10399;50.754;3.366;2022-07-23T11:14:57;5.43;;;3.88;;
20480;SDS011;10399;50.754;3.366;2022-07-23T11:17:35;7.55;;;4.13;;
20480;SDS011;10399;50.754;3.366;2022-07-23T11:20:24;10.13;;;3.88;;
20480;SDS011;10399;50.754;3.366;2022-07-23T11:22:52;7.70;;;4.03;;
20480;SDS011;10399;50.754;3.366;2022-07-23T11:30:56;8.05;;;4.82;;
20480;SDS011;10399;50.754;3.366;2022-07-23T11:33:23;6.15;;;3.40;;
20480;SDS011;10399;50.754;3.366;2022-07-23T11:35:59;7.88;;;5.15;;
20480;SDS011;10399;50.754;3.366;2022-07-23T11:38:30;8.82;;;5.07;;
20480;SDS011;10399;50.754;3.366;2022-07-23T11:40:59;11.02;;;6.25;;
20480;SDS011;10399;50.754;3.366;2022-07-23T11:43:26;8.52;;;5.03;;
20480;SDS011;10399;50.754;3.366;2022-07-23T11:45:54;7.22;;;4.90;;
20480;SDS011;10399;50.754;3.366;2022-07-23T11:48:26;8.57;;;5.00;;
20480;SDS011;10399;50.754;3.366;2022-07-23T11:50:55;9.95;;;6.78;;
20480;SDS011;10399;50.754;3.366;2022-07-23T11:53:24;9.30;;;5.75;;
20480;SDS011;10399;50.754;3.366;2022-07-23T11:55:52;7.85;;;5.20;;
20480;SDS011;10399;50.754;3.366;2022-07-23T11:58:19;11.88;;;5.47;;
20480;SDS011;10399;50.754;3.366;2022-07-23T12:00:46;7.13;;;5.32;;
20480;SDS011;10399;50.754;3.366;2022-07-23T12:03:13;9.88;;;5.85;;
20480;SDS011;10399;50.754;3.366;2022-07-23T12:05:41;8.95;;;5.13;;
20480;SDS011;10399;50.754;3.366;2022-07-23T12:08:08;8.45;;;5.03;;
20480;SDS011;10399;50.754;3.366;2022-07-23T12:10:40;6.47;;;4.50;;
20480;SDS011;10399;50.754;3.366;2022-07-23T12:13:13;8.55;;;5.00;;
20480;SDS011;10399;50.754;3.366;2022-07-23T12:15:49;8.48;;;5.30;;
20480;SDS011;10399;50.754;3.366;2022-07-23T12:18:24;9.52;;;4.55;;
20480;SDS011;10399;50.754;3.366;2022-07-23T12:20:53;6.75;;;5.05;;
20480;SDS011;10399;50.754;3.366;2022-07-23T12:23:24;8.82;;;6.00;;
20480;SDS011;10399;50.754;3.366;2022-07-23T12:25:52;7.40;;;5.50;;
20480;SDS011;10399;50.754;3.366;2022-07-23T12:28:27;9.00;;;5.60;;
20480;SDS011;10399;50.754;3.366;2022-07-23T12:30:56;9.82;;;5.07;;
20480;SDS011;10399;50.754;3.366;2022-07-23T12:33:28;10.65;;;5.40;;
20480;SDS011;10399;50.754;3.366;2022-07-23T12:35:59;10.00;;;6.40;;
20480;SDS011;10399;50.754;3.366;2022-07-23T12:38:35;8.82;;;5.40;;
20480;SDS011;10399;50.754;3.366;2022-07-23T12:41:05;7.68;;;5.22;;
20480;SDS011;10399;50.754;3.366;2022-07-23T12:43:33;12.73;;;7.10;;
20480;SDS011;10399;50.754;3.366;2022-07-23T12:51:30;9.45;;;6.90;;
20480;SDS011;10399;50.754;3.366;2022-07-23T12:54:06;11.90;;;6.10;;
20480;SDS011;10399;50.754;3.366;2022-07-23T12:56:39;13.85;;;5.93;;
20480;SDS011;10399;50.754;3.366;2022-07-23T12:59:14;8.77;;;6.47;;
20480;SDS011;10399;50.754;3.366;2022-07-23T13:01:45;11.77;;;6.07;;
20480;SDS011;10399;50.754;3.366;2022-07-23T13:04:25;9.50;;;6.65;;
20480;SDS011;10399;50.754;3.366;2022-07-23T13:06:55;11.13;;;5.47;;
20480;SDS011;10399;50.754;3.366;2022-07-23T13:09:31;9.25;;;5.95;;
20480;SDS011;10399;50.754;3.366;2022-07-23T13:12:07;8.45;;;5.65;;
20480;SDS011;10399;50.754;3.366;2022-07-23T13:14:37;9.82;;;6.60;;
20480;SDS011;10399;50.754;3.366;2022-07-23T13:17:04;6.38;;;4.80;;
20480;SDS011;10399;50.754;3.366;2022-07-23T13:19:32;7.45;;;5.32;;
20480;SDS011;10399;50.754;3.366;2022-07-23T13:22:00;7.22;;;5.63;;
20480;SDS011;10399;50.754;3.366;2022-07-23T13:24:34;8.57;;;4.90;;
20480;SDS011;10399;50.754;3.366;2022-07-23T13:27:04;8.88;;;5.90;;
20480;SDS011;10399;50.754;3.366;2022-07-23T13:29:33;6.97;;;4.95;;
20480;SDS011;10399;50.754;3.366;2022-07-23T13:32:02;8.90;;;5.07;;
20480;SDS011;10399;50.754;3.366;2022-07-23T13:34:39;13.18;;;5.70;;
20480;SDS011;10399;50.754;3.366;2022-07-23T13:37:08;9.23;;;5.70;;
20480;SDS011;10399;50.754;3.366;2022-07-23T13:39:35;8.35;;;5.35;;
20480;SDS011;10399;50.754;3.366;2022-07-23T13:42:04;7.57;;;5.88;;
20480;SDS011;10399;50.754;3.366;2022-07-23T13:44:33;9.75;;;5.68;;
20480;SDS011;10399;50.754;3.366;2022-07-23T13:47:01;10.13;;;5.78;;
20480;SDS011;10399;50.754;3.366;2022-07-23T13:49:29;11.13;;;6.07;;
20480;SDS011;10399;50.754;3.366;2022-07-23T13:51:56;7.20;;;5.63;;
20480;SDS011;10399;50.754;3.366;2022-07-23T13:54:24;7.03;;;5.38;;
20480;SDS011;10399;50.754;3.366;2022-07-23T13:56:54;8.55;;;5.85;;
20480;SDS011;10399;50.754;3.366;2022-07-23T13:59:22;6.13;;;5.30;;
20480;SDS011;10399;50.754;3.366;2022-07-23T14:01:52;8.93;;;5.70;;
20480;SDS011;10399;50.754;3.366;2022-07-23T14:04:39;9.52;;;6.80;;
20480;SDS011;10399;50.754;3.366;2022-07-23T14:07:07;9.85;;;6.00;;
20480;SDS011;10399;50.754;3.366;2022-07-23T14:09:35;9.32;;;6.30;;
20480;SDS011;10399;50.754;3.366;2022-07-23T14:12:03;6.82;;;5.50;;
20480;SDS011;10399;50.754;3.366;2022-07-23T14:14:32;9.88;;;6.22;;
20480;SDS011;10399;50.754;3.366;2022-07-23T14:17:02;10.90;;;7.28;;
20480;SDS011;10399;50.754;3.366;2022-07-23T14:19:30;12.50;;;5.80;;
20480;SDS011;10399;50.754;3.366;2022-07-23T14:21:58;10.63;;;5.65;;
20480;SDS011;10399;50.754;3.366;2022-07-23T14:24:26;8.10;;;5.53;;
20480;SDS011;10399;50.754;3.366;2022-07-23T14:26:59;6.97;;;5.75;;
20480;SDS011;10399;50.754;3.366;2022-07-23T14:29:28;11.07;;;5.47;;
20480;SDS011;10399;50.754;3.366;2022-07-23T14:31:55;6.70;;;5.63;;
20480;SDS011;10399;50.754;3.366;2022-07-23T14:34:23;7.43;;;5.18;;
20480;SDS011;10399;50.754;3.366;2022-07-23T14:37:12;7.07;;;5.20;;
20480;SDS011;10399;50.754;3.366;2022-07-23T14:39:40;7.78;;;5.47;;
20480;SDS011;10399;50.754;3.366;2022-07-23T14:42:11;7.97;;;5.43;;
20480;SDS011;10399;50.754;3.366;2022-07-23T14:44:38;9.38;;;5.68;;
20480;SDS011;10399;50.754;3.366;2022-07-23T14:47:06;7.35;;;5.35;;
20480;SDS011;10399;50.754;3.366;2022-07-23T14:49:35;12.30;;;5.50;;
20480;SDS011;10399;50.754;3.366;2022-07-23T14:52:02;10.30;;;5.45;;
20480;SDS011;10399;50.754;3.366;2022-07-23T14:54:31;10.93;;;5.75;;
20480;SDS011;10399;50.754;3.366;2022-07-23T14:56:58;11.75;;;5.97;;
20480;SDS011;10399;50.754;3.366;2022-07-23T14:59:25;8.55;;;5.50;;
20480;SDS011;10399;50.754;3.366;2022-07-23T15:01:53;9.23;;;5.93;;
20480;SDS011;10399;50.754;3.366;2022-07-23T15:04:22;8.13;;;5.55;;
20480;SDS011;10399;50.754;3.366;2022-07-23T15:07:06;7.18;;;5.43;;
20480;SDS011;10399;50.754;3.366;2022-07-23T15:09:35;7.82;;;4.93;;
20480;SDS011;10399;50.754;3.366;2022-07-23T15:12:02;8.02;;;5.55;;
20480;SDS011;10399;50.754;3.366;2022-07-23T15:14:33;11.48;;;5.80;;
20480;SDS011;10399;50.754;3.366;2022-07-23T15:17:00;12.43;;;5.78;;
20480;SDS011;10399;50.754;3.366;2022-07-23T15:19:27;11.65;;;5.90;;
20480;SDS011;10399;50.754;3.366;2022-07-23T15:21:56;10.73;;;6.00;;
20480;SDS011;10399;50.754;3.366;2022-07-23T15:24:23;6.22;;;5.30;;
20480;SDS011;10399;50.754;3.366;2022-07-23T15:26:50;8.95;;;5.40;;
20480;SDS011;10399;50.754;3.366;2022-07-23T15:29:17;10.90;;;6.25;;
20480;SDS011;10399;50.754;3.366;2022-07-23T15:31:46;8.27;;;5.75;;
20480;SDS011;10399;50.754;3.366;2022-07-23T15:34:24;9.38;;;5.70;;
20480;SDS011;10399;50.754;3.366;2022-07-23T15:36:53;8.20;;;6.00;;
20480;SDS011;10399;50.754;3.366;2022-07-23T15:39:20;9.20;;;6.43;;